Flight Track Log - Related Links

Times and Time Zones

All times are in EDT time to prevent confusion due to time zone crossing. See the ASQ5007 flight status page for this flight to view local times or setup timezone preferences in your user account.

Time Position Orientation Groundspeed Altitude Reporting Facility
EDT Latitude Longitude Course Direction KTS MPH feet Rate Location/Type
Fri 12:43:42 PM 33.6519 -84.3708 64° Northeast 423 487 2,100  Level Atlanta Center
Fri 12:44:41 PM 33.6814 -84.2983 15° North 284 327 4,500 2,370 Climbing Atlanta Center
Fri 12:45:41 PM 33.7439 -84.2786 331° Northwest 237 273 6,800 2,450 Climbing Atlanta Center
Fri 12:46:41 PM 33.8086 -84.3214 271° West 282 325 9,400 2,100 Climbing Atlanta Center
Fri 12:47:41 PM 33.8103 -84.4164 270° West 287 330 11,000 1,050 Climbing Atlanta Center
Fri 12:48:41 PM 33.8100 -84.5364 261° West 334 384 11,500 1,650 Climbing Atlanta Center
Fri 12:49:41 PM 33.7928 -84.6636 268° West 357 411 14,300 2,050 Climbing Atlanta Center
Fri 12:50:41 PM 33.7900 -84.7636 266° West 350 403 15,600 1,350 Climbing Atlanta Center
Fri 12:51:41 PM 33.7831 -84.8961 267° West 354 407 17,000 1,300 Climbing Atlanta Center
Fri 12:52:41 PM 33.7778 -85.0136 267° West 365 420 18,200 1,350 Climbing Atlanta Center
Fri 12:53:41 PM 33.7728 -85.1333 267° West 365 420 19,700 1,250 Climbing Atlanta Center
Fri 12:54:41 PM 33.7675 -85.2508 267° West 360 414 20,700 942 Climbing Atlanta Center
Fri 12:55:42 PM 33.7622 -85.3631 267° West 366 421 21,600 900 Climbing Atlanta Center
Fri 12:56:41 PM 33.7567 -85.4831 266° West 366 421 22,500 800 Climbing Atlanta Center
Fri 12:57:42 PM 33.7489 -85.6078 267° West 366 421 23,200 750 Climbing Atlanta Center
Fri 12:58:41 PM 33.7431 -85.7350 264° West 372 428 24,000 706 Climbing Atlanta Center
Fri 12:59:41 PM 33.7328 -85.8547 266° West 378 435 24,600 700 Climbing Atlanta Center
Fri 01:00:41 PM 33.7247 -85.9794 267° West 378 435 25,400 750 Climbing Atlanta Center
Fri 01:01:41 PM 33.7183 -86.1067 266° West 388 447 26,100 700 Climbing Atlanta Center
Fri 01:02:41 PM 33.7100 -86.2339 267° West 388 447 26,800 700 Climbing Atlanta Center
Fri 01:03:41 PM 33.7033 -86.3736 264° West 388 447 27,500 600 Climbing Atlanta Center
Fri 01:04:41 PM 33.6925 -86.5006 267° West 388 447 28,000 250 Climbing Atlanta Center
Fri 01:05:41 PM 33.6878 -86.6278 265° West 388 447 28,000  Level Atlanta Center
Fri 01:06:41 PM 33.6786 -86.7597 266° West 388 447 28,000  Level Atlanta Center
Fri 01:07:41 PM 33.6714 -86.8919 261° West 393 452 28,000  Level Atlanta Center
Fri 01:08:41 PM 33.6536 -87.0283 263° West 404 465 28,000  Level Atlanta Center
Fri 01:09:41 PM 33.6403 -87.1503 262° West 410 472 28,000  Level Atlanta Center
Fri 01:11:20 PM 33.6133 -87.3914 263° West 411 473 28,000  Level Memphis Center
Fri 01:12:20 PM 33.5997 -87.5167 263° West 411 473 28,000  Level Memphis Center
Fri 01:13:20 PM 33.5861 -87.6542 261° West 417 480 28,000  Level Memphis Center
Fri 01:14:20 PM 33.5681 -87.7944 262° West 423 487 28,000  Level Memphis Center
Fri 01:15:20 PM 33.5519 -87.9319 263° West 423 487 28,000  Level Memphis Center
Fri 01:16:20 PM 33.5381 -88.0744 263° West 430 495 28,000  Level Memphis Center
Fri 01:17:20 PM 33.5239 -88.2142 261° West 430 495 28,000  Level Memphis Center
Fri 01:18:20 PM 33.5053 -88.3542 262° West 424 488 28,000  Level Memphis Center
Fri 01:19:20 PM 33.4886 -88.4917 268° West 429 494 28,000  Level Memphis Center
Fri 01:20:20 PM 33.4844 -88.6311 270° West 429 494 28,000  Level Memphis Center
Fri 01:21:20 PM 33.4844 -88.7881 270° West 424 488 28,000  Level Memphis Center
Fri 01:22:20 PM 33.4839 -88.9250 269° West 418 481 28,000  Level Memphis Center
Fri 01:23:20 PM 33.4814 -89.0644 270° West 418 481 28,000  Level Memphis Center
Fri 01:24:20 PM 33.4806 -89.2042 270° West 418 481 28,000  Level Memphis Center
Fri 01:25:20 PM 33.4797 -89.3461 270° West 418 481 28,000  Level Memphis Center
Fri 01:26:20 PM 33.4789 -89.4856 268° West 418 481 28,000  Level Memphis Center
Fri 01:27:20 PM 33.4756 -89.6275 268° West 424 488 28,000  Level Memphis Center
Fri 01:28:20 PM 33.4722 -89.7694 269° West 424 488 28,000  Level Memphis Center
Fri 01:29:20 PM 33.4706 -89.9114 266° West 424 488 28,000  Level Memphis Center
Fri 01:30:20 PM 33.4628 -90.0508 266° West 424 488 28,000  Level Memphis Center
Fri 01:31:20 PM 33.4547 -90.1831 266° West 424 488 28,000  Level Memphis Center
Fri 01:32:20 PM 33.4464 -90.3250 265° West 424 488 28,000  Level Memphis Center
Fri 01:33:20 PM 33.4358 -90.4642 265° West 424 488 28,000  Level Memphis Center
Fri 01:34:20 PM 33.4253 -90.6086 266° West 429 494 28,000  Level Memphis Center
Fri 01:35:20 PM 33.4167 -90.7481 264° West 429 494 28,000  Level Memphis Center
Fri 01:36:20 PM 33.4036 -90.8922 267° West 429 494 28,000  Level Memphis Center
Fri 01:37:20 PM 33.3967 -91.0317 264° West 429 494 28,000  Level Memphis Center
Fri 01:38:20 PM 33.3833 -91.1758 265° West 429 494 28,000  Level Memphis Center
Fri 01:39:20 PM 33.3717 -91.3200 265° West 429 494 28,000  Level Memphis Center
Fri 01:40:20 PM 33.3622 -91.4592 267° West 429 494 28,000 -588 Level Memphis Center
Fri 01:42:34 PM 33.3458 -91.7792 264° West 437 503 26,100 -897 Descending Fort Worth Center
Fri 01:43:34 PM 33.3317 -91.9292 263° West 448 516 25,100 -1,000 Descending Fort Worth Center
Fri 01:44:34 PM 33.3169 -92.0767 264° West 448 516 24,100 -550 Descending Fort Worth Center
Fri 01:45:34 PM 33.3031 -92.2417 265° West 448 516 24,000 -50 Descending Fort Worth Center
Fri 01:46:34 PM 33.2933 -92.3639 263° West 443 510 24,000  Level Fort Worth Center
Fri 01:47:34 PM 33.2800 -92.5014 265° West 430 495 24,000  Level Fort Worth Center
Fri 01:48:34 PM 33.2706 -92.6333 257° West 417 480 24,000 -50 Level Fort Worth Center
Fri 01:49:34 PM 33.2461 -92.7614 229° Southwest 412 474 23,900 -550 Descending Fort Worth Center
Fri 01:50:34 PM 33.1706 -92.8647 227° Southwest 386 444 22,900 -1,000 Descending Fort Worth Center
Fri 01:51:34 PM 33.0928 -92.9628 229° Southwest 402 463 21,900 -1,109 Descending Fort Worth Center
Fri 01:52:06 PM 33.0411 -93.0347 230° Southwest 414 476 21,200 -1,147 Descending Fort Worth Center
Fri 01:52:42 PM 32.9953 -93.0989 234° Southwest 411 473 20,600 -886 Descending Fort Worth Center
Fri 01:53:34 PM 32.9497 -93.1728 246° West 414 476 19,900 -1,446 Descending Fort Worth Center
Fri 01:54:34 PM 32.9056 -93.2889 244° Southwest 403 464 17,900 -2,200 Descending Fort Worth Center
Fri 01:55:34 PM 32.8592 -93.3997 243° Southwest 382 440 15,500 -2,250 Descending Fort Worth Center
Fri 01:56:34 PM 32.8164 -93.5006 243° Southwest 371 427 13,400 -2,100 Descending Fort Worth Center
Fri 01:57:34 PM 32.7775 -93.5911 242° Southwest 340 391 11,300 -1,900 Descending Fort Worth Center
Fri 01:58:34 PM 32.7383 -93.6792 239° Southwest 321 369 9,600 -1,900 Descending Fort Worth Center
Fri 01:59:34 PM 32.6969 -93.7600 226° Southwest 299 344 7,500 -2,150 Descending Fort Worth Center
Fri 02:00:34 PM 32.6383 -93.8314 224° Southwest 279 321 5,300 -1,350 Descending Fort Worth Center
Fri 02:01:34 PM 32.5939 -93.8825 192° South 262 302 4,800 -800 Descending Fort Worth Center
Fri 02:02:34 PM 32.5358 -93.8969 154° Southeast 212 244 3,700 -1,350 Descending Fort Worth Center
Fri 02:03:34 PM 32.4997 -93.8764 139° Southeast 180 207 2,100 -1,500 Descending Fort Worth Center
Fri 02:04:34 PM 32.4697 -93.8456 147° Southeast 149 171 700 -850 Descending Fort Worth Center
Fri 02:05:34 PM 32.4356 -93.8197 147° Southeast 144 166 400 -300 Descending Fort Worth Center

Login

Don't have an account? Register now (free) for customized features, flight alerts, and more!